Ana Sayfa
METAR-TAF:

METAR-TAF

Havaalanları :

Koror, Babeldaob, Palau

Enlem: 07-22N, Boylam: 134-32E, yükseklik: 54 m

Güncel hava durumu gözlemi

Rapor saat 19:50 UTC de 24 saat ve 18 dakika önce yapıldı.
Sakin rüzgar
Sıcaklık 25°C
Nem 94%
Basınç 1009 hPa
Görüş mesafesi: 20.9 km
1500 ft yükseklikte az bulutlu
29000 ft yükseklikte parçalı bulutlu

METAR: PTRO 051950Z 00000KT 13SM FEW015 SCT290 25/24 A2979

Saat: 05:08 (20:08 UTC)

Tahmin

Rapor saat 17:38 UTC de 2 saat ve 30 dakika önce yapıldı.
Ayın 06'si saat 18 UTC'den ayın 07'si saat 18 UTC'ye kadar geçerli Tahmin
Rüzgar doğu/kuzeydoğudan 6 kt
Görüş mesafesi: 10 km
1500 ft yükseklikte az bulutlu
12000 ft yükseklikte parçalı bulutlu
Civarda sağanaklar,

TAF: PTRO 061738Z 0618/0718 06006KT P6SM VCSH FEW015 SCT120

4.000'den fazla havaalanı için hava durumu gözlemleri ve tahminleri (METAR ve TAF raporları).

Kullanılabilir istasyonlar harita üzerinde sarı ve kırmızı noktalarla gösterilir.

İstasyonun adını görmek için fareyi noktanın üzerinde gezdirin.

Sonrasında hava gözlem ve tahminlerini görmek için tıklayın.

Haritayı değiştirmek için: yaklaştırmak için siyah artı işaretli yeşil düğmeye ve uzaklaştırmak için de eksi işaretli düğmeye hızla tıklayın; bitişik haritalar için yeşil okları kullanın.


METAR-TAF: